Accueil
METAR-TAF:

METAR-TAF

Aéroports :

Base aérienne Cameri

Novare, Italie

latitude: 45-31N, longitude: 008-40E, altitude: 178 m

Observation

Le bulletin a été fait il y a 8 heures et 22 minutes, à 16:55 UTC
Vent 11 kt de nord
Température 19°C
Humidité 60%
Pression 1015 hPa
Visibilité 10 km ou plus
Nuages épars à une hauteur de 2500 ft

METAR: LIMN 201655Z 35011KT 9999 SCT025 19/11 Q1015 RMK BKN SCT080 VIS MIN 9999 BLU

Heure: 03:17 (01:17 UTC)

Prévision

Le bulletin a été fait il y a 8 heures et 17 minutes, à 17:00 UTC
Prévision valable du 20 à 18 UTC au 21 à 03 UTC
Vent 10 kt de nord
Visibilité 10 km ou plus
Nuages épars à une hauteur de 2500 ft
Probabilité 40% :
Temporairement
du 20 à 18 UTC au 20 à 24 UTC
Visibilité: 5000 m
Quelques nuages à une hauteur de 2000 ft, Cumulonimbus.
Nuages épars à une hauteur de 3000 ft
orage, pluie

TAF: LIMN 201700Z 2018/2103 35010KT 9999 SCT025 PROB40 TEMPO 2018/2024 5000 TSRA FEW020CB SCT030

Observations et prévisions météorologiques de plus de 4000 aéroports (messages METAR et TAF).

Les stations disponibles sont représentées par des disques jaunes et rouges sur la carte.

Passer la souris dessus pour voir le nom de la station.

Cliquer dessus pour voir les observations et prévisions météorologiques.

Pour changer de carte: cliquez sur les boutons verts avec une croix noire pour zoomer, sur le bouton vert avec un tiret pour effectuer un zoom arrière, ou sur les flèches vertes pour les cartes adjacentes.


METAR-TAF: